createdAt,value
2019-02-20T00:04:12.784Z,15.77
2019-02-20T00:09:19.529Z,15.40
2019-02-20T00:14:25.552Z,16.80
2019-02-20T00:19:31.751Z,15.77
2019-02-20T00:24:37.824Z,16.37
2019-02-20T00:29:44.453Z,15.97
2019-02-20T00:34:51.909Z,16.43
2019-02-20T00:39:58.651Z,17.03
2019-02-20T00:45:18.761Z,16.43
2019-02-20T00:50:26.588Z,16.73
2019-02-20T00:55:34.285Z,18.43
2019-02-20T01:00:40.815Z,18.33
2019-02-20T01:05:47.309Z,18.50
2019-02-20T01:10:53.517Z,16.77
2019-02-20T01:16:00.381Z,16.60
2019-02-20T01:21:06.673Z,18.00
2019-02-20T01:26:13.315Z,18.03
2019-02-20T01:31:19.574Z,15.80
2019-02-20T01:36:26.110Z,14.83
2019-02-20T01:41:32.119Z,15.30
2019-02-20T01:46:38.741Z,16.10
2019-02-20T01:51:46.229Z,15.60
2019-02-20T01:56:52.581Z,17.80
2019-02-20T02:01:59.328Z,19.33
2019-02-20T02:07:05.691Z,19.47
2019-02-20T02:12:12.208Z,17.10
2019-02-20T02:17:19.095Z,17.53
2019-02-20T02:22:26.975Z,17.80
2019-02-20T02:27:32.592Z,16.20
2019-02-20T02:32:38.264Z,16.67
2019-02-20T02:37:44.013Z,16.73
2019-02-20T02:42:49.439Z,15.87
2019-02-20T02:47:54.817Z,17.20
2019-02-20T02:53:00.279Z,17.47
2019-02-20T02:58:06.324Z,15.90
2019-02-20T03:03:11.956Z,15.83
2019-02-20T03:08:17.404Z,16.30
2019-02-20T03:13:22.788Z,16.07
2019-02-20T03:18:28.168Z,15.20
2019-02-20T03:23:39.987Z,16.50
2019-02-20T03:28:41.152Z,13.97
2019-02-20T03:33:46.590Z,15.10
2019-02-20T03:38:52.272Z,16.00
2019-02-20T03:43:57.725Z,15.40
2019-02-20T03:49:03.324Z,15.60
2019-02-20T03:54:08.832Z,17.13
2019-02-20T03:59:14.165Z,16.40
2019-02-20T04:04:19.860Z,14.83
2019-02-20T04:09:25.377Z,15.07
2019-02-20T04:14:30.720Z,14.50
2019-02-20T04:19:38.173Z,15.17
2019-02-20T04:24:43.551Z,15.23
2019-02-20T04:29:48.932Z,15.80
2019-02-20T04:34:54.272Z,16.23
2019-02-20T04:39:59.640Z,16.27
2019-02-20T04:45:05.085Z,17.17
2019-02-20T04:50:10.486Z,17.23
2019-02-20T04:55:15.837Z,16.43
2019-02-20T05:00:21.222Z,18.50
2019-02-20T05:05:26.578Z,19.43
2019-02-20T05:10:31.900Z,20.50
2019-02-20T05:15:37.330Z,18.57
2019-02-20T05:20:42.753Z,21.10
2019-02-20T05:25:48.089Z,20.93
2019-02-20T05:30:53.438Z,20.53
2019-02-20T05:35:58.790Z,25.50
2019-02-20T05:41:04.133Z,25.73
2019-02-20T05:46:09.543Z,27.90
2019-02-20T05:51:14.831Z,30.67
2019-02-20T05:56:20.177Z,26.17
2019-02-20T06:01:25.470Z,30.03
2019-02-20T06:06:30.779Z,28.60
2019-02-20T06:11:36.198Z,36.53
2019-02-20T06:16:41.535Z,30.30
2019-02-20T06:21:46.900Z,32.87
2019-02-20T06:26:52.262Z,28.93
2019-02-20T06:31:57.519Z,25.83
2019-02-20T06:37:02.874Z,24.53
2019-02-20T06:42:08.138Z,23.40
2019-02-20T06:47:13.553Z,18.73
2019-02-20T06:52:18.851Z,18.83
2019-02-20T06:57:24.250Z,22.90
2019-02-20T07:02:29.531Z,23.27
2019-02-20T07:07:56.538Z,20.10
2019-02-20T07:13:22.900Z,20.67
2019-02-20T07:18:53.428Z,18.00
2019-02-20T07:24:42.818Z,17.00
2019-02-20T07:30:01.589Z,15.77
2019-02-20T07:35:09.507Z,15.93
2019-02-20T07:40:14.871Z,21.07
2019-02-20T07:45:20.849Z,22.90
2019-02-20T07:50:26.303Z,19.67
2019-02-20T07:55:31.675Z,20.47
2019-02-20T08:00:37.023Z,27.30
2019-02-20T08:05:42.546Z,26.20
2019-02-20T08:10:48.126Z,31.13
2019-02-20T08:15:53.447Z,28.37
2019-02-20T08:20:58.765Z,24.27
2019-02-20T08:26:05.133Z,21.50
2019-02-20T08:31:10.502Z,20.63
2019-02-20T08:36:15.824Z,25.50
2019-02-20T08:41:21.127Z,24.63
2019-02-20T08:46:26.423Z,20.87
2019-02-20T08:51:31.708Z,18.93
2019-02-20T08:56:37.028Z,16.73
2019-02-20T09:01:44.762Z,17.57
2019-02-20T09:06:52.970Z,16.20
2019-02-20T09:11:59.189Z,15.53
2019-02-20T09:17:04.519Z,16.07
2019-02-20T09:22:09.905Z,14.97
2019-02-20T09:27:15.194Z,16.80
2019-02-20T09:32:20.430Z,16.83
2019-02-20T09:37:25.966Z,16.17
2019-02-20T09:42:31.680Z,15.90
2019-02-20T09:47:36.956Z,16.67
2019-02-20T09:52:51.653Z,20.93
2019-02-20T09:57:50.081Z,16.47
2019-02-20T10:02:55.903Z,14.90
2019-02-20T10:08:01.281Z,16.13
2019-02-20T10:13:07.123Z,17.87
2019-02-20T10:18:12.411Z,18.10
2019-02-20T10:23:17.959Z,16.23
2019-02-20T10:28:23.555Z,16.33
2019-02-20T10:33:28.887Z,18.93
2019-02-20T10:38:34.252Z,18.03
2019-02-20T10:43:39.556Z,17.87
2019-02-20T10:48:48.029Z,17.53
2019-02-20T10:53:56.719Z,18.37
2019-02-20T10:59:02.343Z,18.43
2019-02-20T11:04:08.423Z,18.03
2019-02-20T11:09:13.827Z,18.70
2019-02-20T11:14:19.455Z,20.30
2019-02-20T11:19:25.153Z,18.93
2019-02-20T11:24:30.823Z,19.83
2019-02-20T11:29:36.438Z,19.20
2019-02-20T11:34:41.786Z,19.93
2019-02-20T11:39:47.418Z,20.33
2019-02-20T11:44:52.684Z,20.97
2019-02-20T11:49:58.123Z,20.90
2019-02-20T11:55:06.164Z,21.40
2019-02-20T12:00:12.510Z,21.23
2019-02-20T12:05:18.309Z,21.63
2019-02-20T12:10:24.019Z,23.60
2019-02-20T12:15:29.984Z,22.50
2019-02-20T12:20:35.404Z,22.17
2019-02-20T12:25:42.164Z,22.00
2019-02-20T12:30:48.090Z,22.23
2019-02-20T12:35:53.469Z,21.13
2019-02-20T12:41:01.023Z,23.33
2019-02-20T12:46:06.439Z,21.93
2019-02-20T12:51:12.725Z,21.20
2019-02-20T12:56:20.667Z,21.83
2019-02-20T13:01:26.276Z,20.80
2019-02-20T13:06:32.060Z,20.03
2019-02-20T13:11:38.434Z,21.57
2019-02-20T13:16:47.196Z,21.13
2019-02-20T13:21:53.040Z,22.70
2019-02-20T13:26:58.855Z,23.47
2019-02-20T13:32:05.367Z,22.90
2019-02-20T13:37:11.585Z,22.00
2019-02-20T13:42:17.096Z,20.23
2019-02-20T13:47:23.232Z,21.23
2019-02-20T13:52:30.416Z,20.13
2019-02-20T13:57:36.588Z,20.60
2019-02-20T14:02:42.099Z,19.53
2019-02-20T14:07:48.204Z,20.30
2019-02-20T14:12:54.807Z,21.00
2019-02-20T14:18:00.619Z,21.33
2019-02-20T14:23:06.854Z,21.43
2019-02-20T14:28:12.586Z,20.20
2019-02-20T14:33:18.627Z,21.50
2019-02-20T14:38:24.386Z,21.43
2019-02-20T14:43:29.816Z,19.87
2019-02-20T14:48:35.616Z,19.30
2019-02-20T14:53:42.470Z,19.87
2019-02-20T14:58:48.920Z,20.17
2019-02-20T15:03:55.280Z,20.10
2019-02-20T15:09:01.943Z,20.57
2019-02-20T15:14:08.851Z,22.10
2019-02-20T15:19:15.517Z,19.67
2019-02-20T15:24:21.625Z,22.70
2019-02-20T15:29:29.268Z,23.07
2019-02-20T15:34:36.346Z,20.57
2019-02-20T15:39:42.038Z,20.63
2019-02-20T15:44:48.064Z,31.33
2019-02-20T15:49:53.739Z,26.37
2019-02-20T15:54:59.507Z,31.23
2019-02-20T16:00:06.443Z,21.57
2019-02-20T16:05:12.290Z,20.57
2019-02-20T16:10:17.703Z,20.47
2019-02-20T16:15:24.292Z,19.77
2019-02-20T16:20:29.954Z,20.47
2019-02-20T16:25:35.257Z,22.60
2019-02-20T16:30:40.579Z,26.27
2019-02-20T16:35:45.875Z,27.77
2019-02-20T16:40:51.157Z,25.37
2019-02-20T16:45:56.761Z,29.40
2019-02-20T16:51:02.051Z,25.87
2019-02-20T16:56:07.375Z,27.33
2019-02-20T17:01:13.356Z,26.20
2019-02-20T17:06:18.640Z,28.87
2019-02-20T17:11:24.109Z,28.93
2019-02-20T17:16:29.775Z,27.23
2019-02-20T17:21:36.439Z,28.37
2019-02-20T17:26:42.039Z,28.77
2019-02-20T17:31:47.331Z,29.97
2019-02-20T17:36:53.209Z,30.60
2019-02-20T17:41:58.519Z,29.27
2019-02-20T17:47:03.803Z,29.37
2019-02-20T17:52:09.111Z,31.63
2019-02-20T17:57:15.303Z,35.70
2019-02-20T18:02:20.687Z,35.47
2019-02-20T18:07:26.023Z,32.50
2019-02-20T18:12:31.375Z,31.37
2019-02-20T18:17:36.730Z,32.43
2019-02-20T18:22:43.728Z,33.73
2019-02-20T18:27:50.120Z,35.70
2019-02-20T18:32:55.626Z,34.37
2019-02-20T18:38:01.158Z,35.90
2019-02-20T18:43:06.673Z,31.77
2019-02-20T18:48:12.540Z,34.73
2019-02-20T18:53:19.287Z,34.70
2019-02-20T18:58:33.517Z,32.00
2019-02-20T19:03:31.965Z,29.43
2019-02-20T19:09:02.343Z,29.87
2019-02-20T19:14:49.155Z,30.13
2019-02-20T19:20:17.188Z,28.80
2019-02-20T19:25:53.356Z,28.97
2019-02-20T19:31:38.784Z,31.20
2019-02-20T19:37:27.742Z,36.53
2019-02-20T19:43:27.531Z,31.17
2019-02-20T19:49:03.236Z,30.83
2019-02-20T19:54:31.021Z,30.00
2019-02-20T20:00:17.737Z,30.60
2019-02-20T20:06:04.175Z,30.53
2019-02-20T20:11:44.614Z,29.53
2019-02-20T20:17:23.921Z,30.20
2019-02-20T20:23:03.429Z,28.40
2019-02-20T20:28:52.148Z,29.17
2019-02-20T20:34:27.934Z,27.97
2019-02-20T20:39:54.640Z,28.20
2019-02-20T20:45:35.509Z,28.50
2019-02-20T20:51:19.531Z,28.17
2019-02-20T20:57:00.549Z,29.33
2019-02-20T21:02:25.011Z,30.63
2019-02-20T21:08:07.535Z,31.73
2019-02-20T21:13:39.099Z,31.83
2019-02-20T21:19:02.288Z,29.83
2019-02-20T21:24:34.035Z,31.43
2019-02-20T21:30:15.267Z,33.40
2019-02-20T21:35:57.147Z,33.87
2019-02-20T21:41:43.184Z,36.50
2019-02-20T21:47:07.699Z,36.40
2019-02-20T21:52:59.635Z,38.83
2019-02-20T21:58:25.214Z,35.63
2019-02-20T22:04:13.040Z,37.07
2019-02-20T22:10:01.256Z,36.87
2019-02-20T22:15:42.178Z,34.67
2019-02-20T22:21:24.227Z,35.27
2019-02-20T22:27:02.119Z,38.10
2019-02-20T22:32:48.696Z,35.70
2019-02-20T22:38:38.864Z,33.73
2019-02-20T22:44:30.178Z,33.43
2019-02-20T22:49:56.386Z,32.40
2019-02-20T22:55:38.071Z,31.80
2019-02-20T23:01:20.827Z,30.40
2019-02-20T23:07:07.489Z,31.30
2019-02-20T23:12:24.242Z,28.93
2019-02-20T23:17:30.045Z,28.37
2019-02-20T23:22:36.726Z,26.37
2019-02-20T23:27:43.525Z,27.27
2019-02-20T23:32:49.639Z,26.97
2019-02-20T23:37:56.110Z,26.90
2019-02-20T23:43:01.494Z,26.43
2019-02-20T23:48:07.096Z,26.00
2019-02-20T23:53:12.633Z,25.13
2019-02-20T23:58:17.975Z,26.63
